Time;durP1;ratioP1;P1;durP2;ratioP2;P2;SDS_P1;SDS_P2;PMS_P1;PMS_P2;Temp;Humidity;BMP_temperature;BMP_pressure;BME280_temperature;BME280_humidity;BME280_pressure;Samples;Min_cycle;Max_cycle;Signal;HPM_P1;HPM_P2
2023/09/07 00:01:43;;;;;;;13.93;8.98;;;;;;;-142.75;100.00;76200.25;5025616;28;20044;-63
2023/09/07 00:04:09;;;;;;;12.05;8.68;;;;;;;-142.75;100.00;76204.16;5023710;28;20229;-63
2023/09/07 00:06:34;;;;;;;13.48;7.85;;;;;;;-142.75;100.00;76194.34;5004369;28;20053;-62
2023/09/07 00:09:01;;;;;;;12.43;8.25;;;;;;;-142.75;100.00;76186.47;5005423;28;20018;-62
2023/09/07 00:11:26;;;;;;;13.40;9.13;;;;;;;-142.75;100.00;76202.19;5016047;28;20033;-63
2023/09/07 00:13:52;;;;;;;15.10;9.65;;;;;;;-142.75;100.00;76202.19;5025012;28;20385;-62
2023/09/07 00:16:17;;;;;;;11.68;9.00;;;;;;;-142.75;100.00;76214.00;5010333;28;20489;-63
2023/09/07 00:18:43;;;;;;;13.52;8.32;;;;;;;-142.75;100.00;76217.94;4989281;28;20107;-62
2023/09/07 00:21:08;;;;;;;17.23;9.35;;;;;;;-142.75;100.00;76245.50;5005631;28;20041;-62
2023/09/07 00:23:34;;;;;;;12.13;8.52;;;;;;;-142.75;100.00;76259.28;4988516;28;20536;-62
2023/09/07 00:25:59;;;;;;;11.75;8.68;;;;;;;-142.75;100.00;76263.22;5005136;28;20500;-62
2023/09/07 00:28:24;;;;;;;10.93;8.15;;;;;;;-142.75;100.00;76255.34;5005449;28;20570;-62
2023/09/07 00:30:49;;;;;;;12.80;8.15;;;;;;;-142.75;100.00;76243.53;5005422;28;20037;-62
2023/09/07 00:33:15;;;;;;;13.60;8.77;;;;;;;-142.75;100.00;76243.53;5005164;28;20049;-62
2023/09/07 00:35:40;;;;;;;11.63;8.68;;;;;;;-142.75;100.00;76231.72;5005106;28;20029;-62
2023/09/07 00:38:05;;;;;;;13.82;9.40;;;;;;;-142.75;100.00;76225.81;5005119;28;20072;-62
2023/09/07 00:40:31;;;;;;;11.85;9.05;;;;;;;-142.75;100.00;76237.63;5005051;28;20030;-62
2023/09/07 00:42:56;;;;;;;15.23;9.18;;;;;;;-142.75;100.00;76227.78;5004686;28;20034;-63
2023/09/07 00:45:22;;;;;;;12.18;8.98;;;;;;;-142.75;100.00;76233.69;5004867;28;20049;-62
2023/09/07 00:47:47;;;;;;;12.65;8.75;;;;;;;-142.75;100.00;76267.16;5005037;28;20064;-62
2023/09/07 00:50:14;;;;;;;11.85;9.02;;;;;;;-142.75;100.00;76273.06;5004494;28;20030;-64
2023/09/07 00:52:42;;;;;;;11.63;8.43;;;;;;;-142.75;100.00;76267.16;5005616;28;20057;-62
2023/09/07 00:55:08;;;;;;;10.23;8.00;;;;;;;-142.75;100.00;76278.97;5004496;28;20021;-62
2023/09/07 00:57:34;;;;;;;13.57;7.97;;;;;;;-142.75;100.00;76277.00;5004412;28;20036;-61
2023/09/07 01:00:00;;;;;;;11.65;8.18;;;;;;;-142.75;100.00;76277.00;5005287;28;20026;-60
2023/09/07 01:02:25;;;;;;;12.30;8.25;;;;;;;-142.75;100.00;76269.13;5004688;28;20057;-62
2023/09/07 01:04:51;;;;;;;13.15;10.00;;;;;;;-142.75;100.00;76263.22;4987168;28;20034;-62
2023/09/07 01:07:30;;;;;;;12.55;9.63;;;;;;;-142.75;100.00;76253.38;5004839;28;20037;-62
2023/09/07 01:09:59;;;;;;;13.07;9.32;;;;;;;-142.75;100.00;76267.16;5004294;28;20085;-62
2023/09/07 01:12:24;;;;;;;11.57;8.77;;;;;;;-142.75;100.00;76269.13;5004482;28;20444;-62
2023/09/07 01:14:50;;;;;;;12.30;9.40;;;;;;;-142.75;100.00;76275.03;5004370;28;20021;-62
2023/09/07 01:17:15;;;;;;;14.55;8.73;;;;;;;-142.75;100.00;76286.84;5004683;28;20029;-62
2023/09/07 01:19:40;;;;;;;10.45;7.55;;;;;;;-142.75;100.00;76286.84;5004361;28;20365;-62
2023/09/07 01:22:08;;;;;;;11.73;8.38;;;;;;;-142.75;100.00;76277.00;4987019;28;20025;-62
2023/09/07 01:24:35;;;;;;;10.85;8.15;;;;;;;-142.75;100.00;76286.84;5004832;28;20109;-61
2023/09/07 01:27:03;;;;;;;11.90;7.72;;;;;;;-142.75;100.00;76310.47;5004501;28;20038;-62
2023/09/07 01:29:29;;;;;;;9.60;7.32;;;;;;;-142.75;100.00;76306.53;5005175;28;20591;-61
2023/09/07 01:31:54;;;;;;;9.68;7.80;;;;;;;-142.75;100.00;76308.50;5004644;28;20050;-62
2023/09/07 01:34:20;;;;;;;11.70;8.75;;;;;;;-142.75;100.00;76302.59;5004147;28;20084;-62
2023/09/07 01:36:45;;;;;;;13.05;8.75;;;;;;;-142.75;100.00;76292.75;4986819;28;20026;-62
2023/09/07 01:39:11;;;;;;;12.70;9.88;;;;;;;-142.75;100.00;76286.84;5003900;28;20041;-62
2023/09/07 01:41:36;;;;;;;10.95;8.70;;;;;;;-142.75;100.00;76298.66;5004389;28;20030;-62
2023/09/07 01:44:02;;;;;;;14.23;8.57;;;;;;;-142.75;100.00;76296.69;5004029;28;20061;-61
2023/09/07 01:46:27;;;;;;;14.35;9.65;;;;;;;-142.75;100.00;76302.59;5003971;28;20374;-62
2023/09/07 01:48:52;;;;;;;11.25;8.35;;;;;;;-142.75;100.00;76298.66;5003821;28;20049;-62
2023/09/07 01:51:18;;;;;;;12.82;8.77;;;;;;;-142.75;100.00;76282.91;4986624;28;20060;-61
2023/09/07 01:53:43;;;;;;;12.40;9.77;;;;;;;-142.75;100.00;76275.03;5004982;28;20026;-62
2023/09/07 01:56:09;;;;;;;13.60;9.80;;;;;;;-142.75;100.00;76251.41;5003958;28;20028;-62
2023/09/07 01:58:34;;;;;;;14.40;9.80;;;;;;;-142.75;100.00;76239.59;5003935;28;20045;-62
2023/09/07 02:01:00;;;;;;;12.75;9.55;;;;;;;-142.75;100.00;76235.66;5004107;28;20685;-62
2023/09/07 02:03:26;;;;;;;13.75;10.55;;;;;;;-142.75;100.00;76223.84;5003879;28;20061;-62
2023/09/07 02:05:54;;;;;;;14.40;10.57;;;;;;;-142.75;100.00;76231.72;5004056;28;20050;-62
2023/09/07 02:08:20;;;;;;;17.27;11.02;;;;;;;-142.75;100.00;76235.66;5004464;28;20079;-62
2023/09/07 02:10:45;;;;;;;15.55;10.57;;;;;;;-142.75;100.00;76241.56;5007713;28;20463;-62
2023/09/07 02:13:11;;;;;;;17.30;10.43;;;;;;;-142.75;100.00;76233.69;5007609;28;20017;-62
2023/09/07 02:15:38;;;;;;;14.75;10.18;;;;;;;-142.75;100.00;76235.66;5007849;28;20392;-61
2023/09/07 02:18:05;;;;;;;16.75;10.75;;;;;;;-142.75;100.00;76249.44;5007863;28;20084;-62
2023/09/07 02:20:33;;;;;;;13.73;9.77;;;;;;;-142.75;100.00;76247.47;5007841;28;20053;-62
2023/09/07 02:22:59;;;;;;;13.13;9.98;;;;;;;-142.75;100.00;76247.47;5008466;28;20558;-62
2023/09/07 02:25:25;;;;;;;8.55;6.65;;;;;;;-142.75;100.00;76275.03;5007529;28;20041;-61
2023/09/07 02:27:51;;;;;;;10.02;7.57;;;;;;;-142.75;100.00;76288.81;5008858;28;20456;-62
2023/09/07 02:30:17;;;;;;;11.68;8.02;;;;;;;-142.75;100.00;76298.66;5007383;28;20125;-62
2023/09/07 02:32:42;;;;;;;10.95;8.40;;;;;;;-142.75;100.00;76322.28;4989994;28;20032;-63
2023/09/07 02:35:08;;;;;;;14.55;9.95;;;;;;;-142.75;100.00;76318.34;5007307;28;20113;-62
2023/09/07 02:37:35;;;;;;;13.27;9.35;;;;;;;-142.75;100.00;76324.25;5007503;28;20076;-62
2023/09/07 02:40:01;;;;;;;14.05;8.65;;;;;;;-142.75;100.00;76324.25;5007281;28;20533;-62
2023/09/07 02:42:26;;;;;;;10.90;7.95;;;;;;;-142.75;100.00;76343.94;5007322;28;20068;-62
2023/09/07 02:44:51;;;;;;;10.93;7.85;;;;;;;-142.75;100.00;76363.59;5007190;28;20041;-62
2023/09/07 02:47:17;;;;;;;9.40;6.93;;;;;;;-142.75;100.00;76361.63;5007323;28;20119;-61
2023/09/07 02:49:42;;;;;;;8.80;7.03;;;;;;;-142.75;100.00;76389.19;5006807;28;20508;-62
2023/09/07 02:52:08;;;;;;;12.25;8.52;;;;;;;-142.75;100.00;76385.25;5007426;28;20033;-62
2023/09/07 02:54:33;;;;;;;12.50;8.30;;;;;;;-142.75;100.00;76393.13;5027279;28;20013;-62
2023/09/07 02:56:58;;;;;;;11.65;7.63;;;;;;;-142.75;100.00;76385.25;5026857;28;20033;-62
2023/09/07 02:59:24;;;;;;;12.85;9.05;;;;;;;-142.75;100.00;76397.06;5007658;28;20036;-62
2023/09/07 03:01:49;;;;;;;16.15;9.90;;;;;;;-142.75;100.00;76393.13;5007295;28;20535;-62
2023/09/07 03:04:14;;;;;;;13.80;9.40;;;;;;;-142.75;100.00;76381.31;5006657;28;20022;-62
2023/09/07 03:06:40;;;;;;;16.55;10.02;;;;;;;-142.75;100.00;76385.25;5006918;28;20034;-62
2023/09/07 03:09:08;;;;;;;14.02;10.20;;;;;;;-142.75;100.00;76389.19;5006480;28;20427;-62
2023/09/07 03:11:34;;;;;;;13.60;10.02;;;;;;;-142.75;100.00;76375.41;5006574;28;20030;-62
2023/09/07 03:14:00;;;;;;;11.48;8.50;;;;;;;-142.75;100.00;76355.72;5006703;28;20029;-62
2023/09/07 03:16:25;;;;;;;13.32;8.82;;;;;;;-142.75;100.00;76369.50;5006692;28;20052;-61
2023/09/07 03:18:51;;;;;;;13.73;8.48;;;;;;;-142.75;100.00;76365.56;5005837;28;20400;-62
2023/09/07 03:21:17;;;;;;;13.85;9.15;;;;;;;-142.75;100.00;76365.56;5006762;28;20112;-62
2023/09/07 03:23:44;;;;;;;13.40;9.85;;;;;;;-142.75;100.00;76367.53;5006998;28;20534;-62
2023/09/07 03:26:10;;;;;;;14.35;10.05;;;;;;;-142.75;100.00;76369.50;5013639;28;20476;-62
2023/09/07 03:28:35;;;;;;;11.63;9.05;;;;;;;-142.75;100.00;76371.47;5006407;28;20029;-62
2023/09/07 03:31:01;;;;;;;11.15;8.63;;;;;;;-142.75;100.00;76377.38;4988739;28;20033;-62
2023/09/07 03:33:26;;;;;;;12.73;8.75;;;;;;;-142.75;100.00;76377.38;5006569;28;20818;-62
2023/09/07 03:35:52;;;;;;;10.75;7.63;;;;;;;-142.75;100.00;76385.25;5006338;28;20076;-62
2023/09/07 03:38:17;;;;;;;13.63;8.45;;;;;;;-142.75;100.00;76381.31;5006353;28;20507;-62
2023/09/07 03:40:43;;;;;;;16.48;10.25;;;;;;;-142.75;100.00;76389.19;5005809;28;20030;-62
2023/09/07 03:43:09;;;;;;;9.52;6.50;;;;;;;-142.75;100.00;76408.88;5008408;28;20022;-62
2023/09/07 03:45:34;;;;;;;11.75;8.10;;;;;;;-142.75;100.00;76408.88;5005906;28;20037;-63
2023/09/07 03:47:59;;;;;;;14.25;10.13;;;;;;;-142.75;100.00;76381.31;5006038;28;20041;-62
2023/09/07 03:50:25;;;;;;;17.17;11.82;;;;;;;-142.75;100.00;76361.63;5005658;28;20666;-62
2023/09/07 03:52:50;;;;;;;17.58;12.32;;;;;;;-142.75;100.00;76349.81;5006426;28;20022;-62
2023/09/07 03:55:16;;;;;;;16.25;11.85;;;;;;;-142.75;100.00;76341.97;5005925;28;20493;-62
2023/09/07 03:57:41;;;;;;;19.20;12.77;;;;;;;-142.75;100.00;76340.00;5005939;28;20025;-62
2023/09/07 04:00:08;;;;;;;18.90;13.00;;;;;;;-142.75;100.00;76334.09;5005546;28;20111;-62
2023/09/07 04:02:33;;;;;;;18.42;13.45;;;;;;;-142.75;100.00;76320.31;5006093;28;20033;-62
2023/09/07 04:05:01;;;;;;;17.70;12.73;;;;;;;-142.75;100.00;76314.41;5005733;28;20217;-62
2023/09/07 04:07:26;;;;;;;19.10;13.20;;;;;;;-142.75;100.00;76318.34;5005749;28;20018;-62
2023/09/07 04:09:52;;;;;;;17.80;11.73;;;;;;;-142.75;100.00;76316.38;5005473;28;20055;-62
2023/09/07 04:12:17;;;;;;;20.25;13.55;;;;;;;-142.75;100.00;76314.41;5005639;28;20053;-63
2023/09/07 04:14:43;;;;;;;17.27;12.75;;;;;;;-142.75;100.00;76318.34;5005493;28;20101;-62
2023/09/07 04:17:09;;;;;;;19.48;12.90;;;;;;;-142.75;100.00;76340.00;5005551;28;20021;-60
2023/09/07 04:19:34;;;;;;;15.32;10.82;;;;;;;-142.75;100.00;76349.81;5005300;28;20037;-62
2023/09/07 04:22:00;;;;;;;10.90;7.80;;;;;;;-142.75;100.00;76351.81;5005684;28;20574;-62
2023/09/07 04:24:27;;;;;;;15.00;9.73;;;;;;;-142.75;100.00;76377.38;5005361;28;20542;-62
2023/09/07 04:26:53;;;;;;;13.07;9.48;;;;;;;-142.75;100.00;76365.56;5005359;28;20072;-62
2023/09/07 04:29:18;;;;;;;17.52;10.50;;;;;;;-142.75;100.00;76375.41;5005149;28;20069;-62
2023/09/07 04:31:43;;;;;;;14.20;10.77;;;;;;;-142.75;100.00;76385.25;5004700;28;20037;-62
2023/09/07 04:34:09;;;;;;;14.35;10.45;;;;;;;-142.75;100.00;76383.28;5005117;28;20033;-62
2023/09/07 04:36:34;;;;;;;15.15;11.27;;;;;;;-142.75;100.00;76393.13;5005330;28;20029;-62
2023/09/07 04:38:59;;;;;;;14.68;10.77;;;;;;;-142.75;100.00;76395.09;5004944;28;20037;-62
2023/09/07 04:41:25;;;;;;;14.35;10.27;;;;;;;-142.75;100.00;76416.75;5007747;28;22066;-62
2023/09/07 04:43:50;;;;;;;15.88;11.10;;;;;;;-142.75;100.00;76422.66;5024671;28;20037;-62
2023/09/07 04:46:16;;;;;;;13.55;10.02;;;;;;;-142.75;100.00;76420.69;5013332;28;20026;-62
2023/09/07 04:48:43;;;;;;;13.88;10.05;;;;;;;-142.75;100.00;76432.50;5004991;28;20377;-62
2023/09/07 04:51:09;;;;;;;11.75;9.18;;;;;;;-142.75;100.00;76440.38;5006150;28;20436;-62
2023/09/07 04:53:37;;;;;;;16.55;11.00;;;;;;;-142.75;100.00;76432.50;5005540;28;20022;-62
2023/09/07 04:56:03;;;;;;;18.00;11.23;;;;;;;-142.75;100.00;76432.50;5011743;28;20029;-62
2023/09/07 04:58:29;;;;;;;18.20;12.70;;;;;;;-142.75;100.00;76414.78;5024290;28;20029;-62
2023/09/07 05:00:54;;;;;;;19.13;12.30;;;;;;;-142.75;100.00;76401.00;5024213;28;20036;-62
2023/09/07 05:03:20;;;;;;;16.65;12.20;;;;;;;-142.75;100.00;76397.06;5024182;28;20075;-64
2023/09/07 05:05:51;;;;;;;18.85;12.70;;;;;;;-142.75;100.00;76373.44;5024260;28;20029;-62
2023/09/07 05:08:16;;;;;;;18.90;13.38;;;;;;;-142.75;100.00;76373.44;5024174;28;20031;-62
2023/09/07 05:10:42;;;;;;;19.67;12.73;;;;;;;-142.75;100.00;76363.59;5023866;28;20017;-62
2023/09/07 05:13:07;;;;;;;16.63;11.35;;;;;;;-142.75;100.00;76377.38;5011242;28;20058;-61
2023/09/07 05:15:32;;;;;;;17.63;10.13;;;;;;;-142.75;100.00;76391.16;5010591;28;20668;-63
2023/09/07 05:17:58;;;;;;;13.88;9.02;;;;;;;-142.75;100.00;76428.56;5006534;28;20033;-61
2023/09/07 05:20:23;;;;;;;12.10;8.95;;;;;;;-142.75;100.00;76448.25;5004265;28;20273;-61
2023/09/07 05:22:49;;;;;;;13.38;8.27;;;;;;;-142.75;100.00;76471.88;5004990;28;20022;-62
2023/09/07 05:25:14;;;;;;;12.35;9.35;;;;;;;-142.75;100.00;76473.84;5005096;28;20030;-61
2023/09/07 05:27:40;;;;;;;11.40;8.32;;;;;;;-142.75;100.00;76477.78;5004534;28;20029;-62
2023/09/07 05:30:06;;;;;;;10.50;7.95;;;;;;;-142.75;100.00;76465.97;5003777;28;20489;-61
2023/09/07 05:32:32;;;;;;;14.80;9.88;;;;;;;-142.75;100.00;76456.13;5004776;28;20025;-63
2023/09/07 05:34:57;;;;;;;14.13;9.60;;;;;;;-142.75;100.00;76440.38;5004302;28;20026;-61
2023/09/07 05:37:23;;;;;;;15.52;9.07;;;;;;;-142.75;100.00;76432.50;5004157;28;20625;-62
2023/09/07 05:39:48;;;;;;;15.95;10.88;;;;;;;-142.75;100.00;76422.66;5004120;28;20037;-62
2023/09/07 05:42:14;;;;;;;17.20;12.10;;;;;;;-142.75;100.00;76414.78;4986189;28;20034;-62
2023/09/07 05:44:40;;;;;;;19.35;13.20;;;;;;;-142.75;100.00;76389.19;5004086;28;20053;-62
2023/09/07 05:47:05;;;;;;;17.92;11.20;;;;;;;-142.75;100.00;76397.06;5004429;28;20045;-62
2023/09/07 05:49:31;;;;;;;15.32;10.77;;;;;;;-142.75;100.00;76391.16;5003928;28;20072;-62
2023/09/07 05:51:56;;;;;;;14.07;10.52;;;;;;;-142.75;100.00;76397.06;5003792;28;20455;-62
2023/09/07 05:54:22;;;;;;;11.52;7.53;;;;;;;-142.75;100.00;76391.16;4986621;28;20447;-62
2023/09/07 05:56:47;;;;;;;11.32;8.05;;;;;;;-142.75;100.00;76391.16;5004084;28;20532;-62
2023/09/07 05:59:13;;;;;;;13.50;9.80;;;;;;;-142.75;100.00;76375.41;5003668;28;20038;-62
2023/09/07 06:01:39;;;;;;;13.27;8.98;;;;;;;-142.75;100.00;76361.63;5004310;28;20125;-62
2023/09/07 06:04:05;;;;;;;13.82;10.40;;;;;;;-142.75;100.00;76355.72;5003781;28;20076;-61
2023/09/07 06:06:31;;;;;;;17.35;12.07;;;;;;;-142.75;100.00;76341.97;4985883;28;20018;-62
2023/09/07 06:08:57;;;;;;;15.93;11.55;;;;;;;-142.75;100.00;76310.47;5006484;28;20100;-62
2023/09/07 06:11:22;;;;;;;17.17;11.73;;;;;;;-142.75;100.00;76302.59;5023340;28;20024;-62
2023/09/07 06:13:47;;;;;;;18.35;12.93;;;;;;;-142.75;100.00;76267.16;5023674;28;20052;-62
2023/09/07 06:16:13;;;;;;;18.50;12.88;;;;;;;-142.75;100.00;76251.41;5005683;28;20036;-62
2023/09/07 06:18:38;;;;;;;17.23;12.70;;;;;;;-142.75;100.00;76235.66;5023297;28;20079;-62
2023/09/07 06:21:05;;;;;;;17.58;11.70;;;;;;;-142.75;100.00;76217.94;5023380;28;20045;-62
2023/09/07 06:23:31;;;;;;;18.35;12.13;;;;;;;-142.75;100.00;76235.66;5024119;28;20025;-62
2023/09/07 06:25:56;;;;;;;16.40;11.70;;;;;;;-142.75;100.00;76219.91;5023545;28;20451;-62
2023/09/07 06:28:22;;;;;;;15.45;11.73;;;;;;;-142.75;100.00;76231.72;5022686;28;20112;-62
2023/09/07 06:30:47;;;;;;;16.40;12.13;;;;;;;-142.75;100.00;76221.88;5012757;28;20112;-62
2023/09/07 06:33:12;;;;;;;16.55;10.85;;;;;;;-142.75;100.00;76196.31;5023529;28;20540;-62
2023/09/07 06:35:38;;;;;;;14.93;10.65;;;;;;;-142.75;100.00;76208.09;5004847;28;20392;-62
2023/09/07 06:38:03;;;;;;;16.58;11.00;;;;;;;-142.75;100.00;76196.31;5004200;28;20485;-63
2023/09/07 06:40:28;;;;;;;18.88;12.10;;;;;;;-142.75;100.00;76180.56;5003227;28;20049;-62
2023/09/07 06:42:54;;;;;;;16.30;10.65;;;;;;;-142.75;100.00;76168.75;5005525;28;20049;-62
2023/09/07 06:45:19;;;;;;;14.45;11.13;;;;;;;-142.75;100.00;76172.69;5022919;28;20033;-62
2023/09/07 06:47:45;;;;;;;21.02;12.15;;;;;;;-142.75;100.00;76141.19;5023327;28;20033;-63
2023/09/07 06:50:10;;;;;;;17.88;11.43;;;;;;;-142.75;100.00;76129.38;5022597;28;20021;-62
2023/09/07 06:52:35;;;;;;;17.02;11.18;;;;;;;-142.75;100.00;76103.78;5023044;28;20025;-62
2023/09/07 06:55:01;;;;;;;15.40;10.95;;;;;;;-142.75;100.00;76103.78;5005069;28;20022;-62
2023/09/07 06:57:26;;;;;;;14.60;10.43;;;;;;;-142.75;100.00;76091.97;5018924;28;20022;-62
2023/09/07 06:59:52;;;;;;;17.63;10.40;;;;;;;-142.75;100.00;76093.94;5005477;28;20489;-62
2023/09/07 07:02:17;;;;;;;14.48;9.70;;;;;;;-142.75;100.00;76095.91;5008173;28;20045;-64
2023/09/07 07:04:45;;;;;;;15.57;9.73;;;;;;;-142.75;100.00;76125.44;5013723;28;20433;-62
2023/09/07 07:07:10;;;;;;;15.88;10.68;;;;;;;-142.75;100.00;76107.72;5006076;28;20037;-62
2023/09/07 07:09:36;;;;;;;16.30;10.35;;;;;;;-142.75;100.00;76082.13;5006006;28;20026;-63
2023/09/07 07:12:02;;;;;;;15.88;9.98;;;;;;;-142.75;100.00;76074.25;5014395;28;20037;-62
2023/09/07 07:14:27;;;;;;;17.77;10.02;;;;;;;-142.75;100.00;76064.44;5016736;28;20116;-63
2023/09/07 07:16:52;;;;;;;14.98;9.55;;;;;;;-142.75;100.00;76048.69;5016888;28;20028;-63
2023/09/07 07:19:18;;;;;;;14.93;9.20;;;;;;;-142.75;100.00;76036.88;5017014;28;20408;-64
2023/09/07 07:21:44;;;;;;;15.80;10.27;;;;;;;-142.75;100.00;76038.84;5016258;28;20096;-63
2023/09/07 07:24:09;;;;;;;18.73;9.25;;;;;;;-142.75;100.00;76029.00;5026231;28;20021;-62
2023/09/07 07:26:35;;;;;;;13.98;10.25;;;;;;;-142.75;100.00;76021.13;5025627;28;20041;-62
2023/09/07 07:29:01;;;;;;;13.57;9.05;;;;;;;-142.75;100.00;76005.38;5025255;28;20180;-62
2023/09/07 07:31:27;;;;;;;17.23;10.27;;;;;;;-142.75;100.00;76003.41;5025567;28;20063;-62
2023/09/07 07:33:52;;;;;;;16.92;8.88;;;;;;;-142.75;100.00;75979.78;5011852;28;20065;-62
2023/09/07 07:36:18;;;;;;;12.20;9.45;;;;;;;-142.75;100.00;75971.91;5005809;28;20033;-63
2023/09/07 07:38:43;;;;;;;16.35;9.70;;;;;;;-142.75;100.00;75969.94;5005652;28;20021;-61
2023/09/07 07:41:09;;;;;;;16.63;10.15;;;;;;;-142.75;100.00;75960.13;5006798;28;20026;-63
2023/09/07 07:43:34;;;;;;;13.57;9.32;;;;;;;-142.75;100.00;75975.84;5005703;28;20512;-63
2023/09/07 07:45:59;;;;;;;15.43;9.90;;;;;;;-142.75;100.00;75956.19;5005687;28;20393;-63
2023/09/07 07:48:25;;;;;;;13.35;9.52;;;;;;;-142.75;100.00;75952.25;5005573;28;20068;-63
2023/09/07 07:50:50;;;;;;;16.95;8.80;;;;;;;-142.75;100.00;75936.50;5005248;28;20021;-62
2023/09/07 07:53:16;;;;;;;13.98;8.85;;;;;;;-142.75;100.00;75926.66;4988553;28;20026;-63
2023/09/07 07:55:41;;;;;;;13.98;8.85;;;;;;;-142.75;100.00;75948.31;5006139;28;20674;-63
2023/09/07 07:58:09;;;;;;;15.63;9.43;;;;;;;-142.75;100.00;75942.41;4988372;28;20033;-63
2023/09/07 08:00:38;;;;;;;14.63;9.75;;;;;;;-142.75;100.00;75946.34;5005773;28;20022;-62
2023/09/07 08:03:07;;;;;;;12.43;9.20;;;;;;;-142.75;100.00;75946.34;5005694;28;20032;-61
2023/09/07 08:05:33;;;;;;;14.57;9.63;;;;;;;-142.75;100.00;75938.47;4995596;28;20033;-63
2023/09/07 08:07:59;;;;;;;14.68;8.55;;;;;;;-142.75;100.00;75928.63;5015391;28;20133;-63
2023/09/07 08:10:24;;;;;;;12.93;9.07;;;;;;;-142.75;100.00;75932.56;5006315;28;20568;-63
2023/09/07 08:12:56;;;;;;;13.43;10.10;;;;;;;-142.75;100.00;75908.94;5011905;28;20022;-63
2023/09/07 08:15:24;;;;;;;17.13;9.80;;;;;;;-142.75;100.00;75905.00;5004164;28;20030;-63
2023/09/07 08:17:50;;;;;;;14.20;9.63;;;;;;;-142.75;100.00;75895.16;5003451;28;20032;-63
2023/09/07 08:20:16;;;;;;;14.15;8.98;;;;;;;-142.75;100.00;75877.44;5006652;28;20497;-63
2023/09/07 08:22:42;;;;;;;13.70;9.57;;;;;;;-142.75;100.00;75869.56;5005148;28;20022;-63
2023/09/07 08:25:13;;;;;;;13.18;9.05;;;;;;;-142.75;100.00;75859.72;4988128;28;20017;-63
2023/09/07 08:27:44;;;;;;;15.15;9.20;;;;;;;-142.75;100.00;75851.88;5006351;28;20500;-63
2023/09/07 08:30:15;;;;;;;14.82;9.68;;;;;;;-142.75;100.00;75828.25;5005812;28;20448;-63
2023/09/07 08:32:41;;;;;;;13.18;9.68;;;;;;;-142.75;100.00;75822.34;4988394;28;20032;-63
2023/09/07 08:35:12;;;;;;;11.80;8.55;;;;;;;-142.75;100.00;75806.59;5005872;28;20397;-64
2023/09/07 08:37:38;;;;;;;13.00;9.35;;;;;;;-142.75;100.00;75802.66;5003448;28;20034;-64
2023/09/07 08:40:04;;;;;;;12.27;9.35;;;;;;;-142.75;100.00;75802.66;5001321;28;20501;-63
2023/09/07 08:42:30;;;;;;;13.90;9.38;;;;;;;-142.75;100.00;75826.28;5005301;28;20030;-64
2023/09/07 08:45:00;;;;;;;12.38;8.43;;;;;;;-142.75;100.00;75792.81;5008388;28;20492;-64
2023/09/07 08:47:29;;;;;;;13.77;8.32;;;;;;;-142.75;100.00;75759.38;5004795;28;20025;-63
2023/09/07 08:49:56;;;;;;;13.52;8.77;;;;;;;-142.75;100.00;75741.66;5005292;28;20022;-63
2023/09/07 08:52:22;;;;;;;13.43;8.88;;;;;;;-142.75;100.00;75739.69;4998044;28;20029;-64
2023/09/07 08:54:48;;;;;;;11.85;7.88;;;;;;;-142.75;100.00;75731.81;5005451;28;20048;-63
2023/09/07 08:57:14;;;;;;;13.82;8.90;;;;;;;-142.75;100.00;75708.19;5008578;28;20540;-64
2023/09/07 08:59:39;;;;;;;12.32;8.35;;;;;;;-142.75;100.00;75700.31;4987931;28;20071;-63
2023/09/07 09:02:09;;;;;;;14.77;8.65;;;;;;;-142.75;100.00;75680.63;5010319;28;20481;-63
2023/09/07 09:04:35;;;;;;;12.32;8.50;;;;;;;-142.75;100.00;75672.78;5007630;28;20032;-63
2023/09/07 09:07:03;;;;;;;12.70;8.18;;;;;;;-142.75;100.00;75664.91;5005757;28;20022;-63
2023/09/07 09:09:29;;;;;;;10.18;7.68;;;;;;;-142.75;100.00;75649.16;5005624;28;20148;-64
2023/09/07 09:11:55;;;;;;;11.45;7.35;;;;;;;-142.75;100.00;75621.59;5006025;28;20093;-64
2023/09/07 09:14:23;;;;;;;10.95;7.75;;;;;;;-142.75;100.00;75599.94;5006020;28;20022;-64
2023/09/07 09:16:53;;;;;;;12.80;7.90;;;;;;;-142.75;100.00;75596.00;5005947;28;20025;-64
2023/09/07 09:19:18;;;;;;;10.60;7.55;;;;;;;-142.75;100.00;75592.09;5005513;28;20429;-64
2023/09/07 09:21:47;;;;;;;11.95;8.15;;;;;;;-142.75;100.00;75596.00;5014876;28;20032;-64
2023/09/07 09:24:12;;;;;;;11.55;7.60;;;;;;;-142.75;100.00;75582.25;5025788;28;20022;-64
2023/09/07 09:26:38;;;;;;;11.43;7.70;;;;;;;-142.75;100.00;75594.06;5025183;28;20523;-63
2023/09/07 09:29:03;;;;;;;12.75;7.07;;;;;;;-142.75;100.00;75574.38;5025173;28;20043;-64
2023/09/07 09:31:29;;;;;;;10.45;6.38;;;;;;;-142.75;100.00;75574.38;5018505;28;20666;-63
2023/09/07 09:33:55;;;;;;;11.65;6.60;;;;;;;-142.75;100.00;75570.44;4995116;28;20022;-63
2023/09/07 09:36:22;;;;;;;10.98;6.90;;;;;;;-142.75;98.63;75572.41;5005649;28;20026;-63
2023/09/07 09:38:49;;;;;;;9.50;6.85;;;;;;;-142.75;98.38;75590.13;5005664;28;20636;-63
2023/09/07 09:41:17;;;;;;;9.82;6.82;;;;;;;-142.75;100.00;75562.56;5005514;28;20024;-63
2023/09/07 09:43:44;;;;;;;10.00;6.13;;;;;;;-142.75;99.35;75558.63;5005613;28;20111;-63
2023/09/07 09:46:10;;;;;;;11.82;6.85;;;;;;;-142.75;100.00;75538.94;5005392;28;20525;-63
2023/09/07 09:48:36;;;;;;;10.35;6.38;;;;;;;-142.75;98.71;75529.09;5005257;28;20026;-63
2023/09/07 09:51:03;;;;;;;9.57;6.28;;;;;;;-142.75;97.35;75523.19;5005498;28;20597;-64
2023/09/07 09:53:30;;;;;;;9.98;6.57;;;;;;;-142.75;98.85;75499.59;5005446;28;20508;-63
2023/09/07 09:55:55;;;;;;;9.25;6.00;;;;;;;-142.75;98.55;75481.88;5005832;28;20109;-63
2023/09/07 09:58:21;;;;;;;12.35;7.18;;;;;;;-142.75;93.26;75479.91;5005535;28;20437;-63
2023/09/07 10:00:50;;;;;;;12.55;6.75;;;;;;;-142.75;95.51;75468.09;4987738;28;20100;-63
2023/09/07 10:03:19;;;;;;;9.48;5.97;;;;;;;-142.75;95.09;75466.13;5005489;28;20028;-63
2023/09/07 10:05:48;;;;;;;9.95;6.47;;;;;;;-142.75;95.83;75460.22;5005460;28;20018;-64
2023/09/07 10:08:15;;;;;;;9.13;6.20;;;;;;;-142.75;96.47;75446.44;5005303;28;20030;-64
2023/09/07 10:10:42;;;;;;;8.98;7.05;;;;;;;-142.75;94.24;75448.41;5004778;28;20046;-63
2023/09/07 10:13:08;;;;;;;10.93;6.40;;;;;;;-142.75;94.03;75440.53;5005349;28;20061;-62
2023/09/07 10:15:38;;;;;;;8.80;6.15;;;;;;;-142.75;94.81;75448.41;5005118;28;20022;-63
2023/09/07 10:18:07;;;;;;;9.60;5.90;;;;;;;-142.75;94.81;75420.88;5005530;28;20018;-63
2023/09/07 10:20:58;;;;;;;10.77;6.35;;;;;;;-142.75;90.71;75391.34;5004507;28;20093;-63
2023/09/07 10:23:40;;;;;;;10.45;7.10;;;;;;;-142.75;91.70;75405.13;4999579;28;20125;-63
2023/09/07 10:26:11;;;;;;;12.02;6.40;;;;;;;-142.75;90.97;75401.19;5003067;28;20036;-63
2023/09/07 10:28:37;;;;;;;10.50;6.18;;;;;;;-142.75;91.54;75377.56;5003981;28;20034;-63
2023/09/07 10:31:13;;;;;;;8.57;5.88;;;;;;;-142.75;90.42;75338.22;5006863;28;20449;-63
2023/09/07 10:33:38;;;;;;;8.57;6.18;;;;;;;-142.75;89.21;75340.19;5007805;28;20481;-63
2023/09/07 10:36:05;;;;;;;8.35;5.15;;;;;;;-142.75;86.83;75361.84;5009810;28;20022;-63
2023/09/07 10:38:35;;;;;;;8.80;5.53;;;;;;;-142.75;87.44;75346.09;5007901;28;20033;-63
2023/09/07 10:41:02;;;;;;;11.70;5.57;;;;;;;-142.75;87.88;75377.56;5017292;28;20025;-63
2023/09/07 10:43:29;;;;;;;5.90;5.10;;;;;;;-142.75;87.79;75389.38;5025687;28;20091;-63
2023/09/07 10:45:56;;;;;;;9.60;4.25;;;;;;;-142.75;89.44;75355.94;5007470;28;20633;-63
2023/09/07 10:48:22;;;;;;;9.32;6.03;;;;;;;-142.75;85.95;75361.84;5007522;28;20068;-63
2023/09/07 10:50:48;;;;;;;8.85;5.63;;;;;;;-142.75;86.59;75371.66;5006045;28;20029;-63
2023/09/07 10:53:14;;;;;;;8.48;5.30;;;;;;;-142.75;86.87;75363.78;5003753;28;20029;-63
2023/09/07 10:55:42;;;;;;;10.52;5.55;;;;;;;-142.75;87.06;75361.84;5015136;28;20022;-63
2023/09/07 10:58:08;;;;;;;8.45;5.22;;;;;;;-142.75;85.83;75355.94;4996044;28;20033;-63